sensor_id;sensor_type;location;lat;lon;timestamp;P1;durP1;ratioP1;P2;durP2;ratioP2
72284;SDS011;60220;53.552;10.092;2024-02-15T00:02:18;23.83;;;9.38;;
72284;SDS011;60220;53.552;10.092;2024-02-15T00:04:45;24.70;;;9.90;;
72284;SDS011;60220;53.552;10.092;2024-02-15T00:07:15;17.77;;;8.38;;
72284;SDS011;60220;53.552;10.092;2024-02-15T00:09:44;23.20;;;9.75;;
72284;SDS011;60220;53.552;10.092;2024-02-15T00:12:10;17.67;;;8.63;;
72284;SDS011;60220;53.552;10.092;2024-02-15T00:14:38;22.50;;;9.52;;
72284;SDS011;60220;53.552;10.092;2024-02-15T00:17:07;24.52;;;10.57;;
72284;SDS011;60220;53.552;10.092;2024-02-15T00:19:33;22.33;;;8.85;;
72284;SDS011;60220;53.552;10.092;2024-02-15T00:22:00;23.60;;;9.70;;
72284;SDS011;60220;53.552;10.092;2024-02-15T00:24:28;24.48;;;10.40;;
72284;SDS011;60220;53.552;10.092;2024-02-15T00:26:58;27.40;;;10.43;;
72284;SDS011;60220;53.552;10.092;2024-02-15T00:29:25;24.83;;;10.50;;
72284;SDS011;60220;53.552;10.092;2024-02-15T00:31:53;22.23;;;10.57;;
72284;SDS011;60220;53.552;10.092;2024-02-15T00:34:21;23.95;;;10.38;;
72284;SDS011;60220;53.552;10.092;2024-02-15T00:36:50;29.52;;;12.35;;
72284;SDS011;60220;53.552;10.092;2024-02-15T00:39:19;28.23;;;11.35;;
72284;SDS011;60220;53.552;10.092;2024-02-15T00:41:49;26.95;;;11.35;;
72284;SDS011;60220;53.552;10.092;2024-02-15T00:44:15;29.10;;;12.07;;
72284;SDS011;60220;53.552;10.092;2024-02-15T00:46:42;35.20;;;12.70;;
72284;SDS011;60220;53.552;10.092;2024-02-15T00:49:09;29.25;;;12.93;;
72284;SDS011;60220;53.552;10.092;2024-02-15T00:51:36;29.17;;;13.35;;
72284;SDS011;60220;53.552;10.092;2024-02-15T00:54:05;31.40;;;13.25;;
72284;SDS011;60220;53.552;10.092;2024-02-15T00:56:31;35.72;;;13.77;;
72284;SDS011;60220;53.552;10.092;2024-02-15T00:59:02;32.15;;;12.65;;
72284;SDS011;60220;53.552;10.092;2024-02-15T01:01:30;30.23;;;13.27;;
72284;SDS011;60220;53.552;10.092;2024-02-15T01:03:57;35.22;;;14.00;;
72284;SDS011;60220;53.552;10.092;2024-02-15T01:06:23;37.35;;;13.68;;
72284;SDS011;60220;53.552;10.092;2024-02-15T01:08:50;36.08;;;13.73;;
72284;SDS011;60220;53.552;10.092;2024-02-15T01:11:16;37.13;;;13.50;;
72284;SDS011;60220;53.552;10.092;2024-02-15T01:13:43;30.58;;;14.13;;
72284;SDS011;60220;53.552;10.092;2024-02-15T01:16:11;30.77;;;12.93;;
72284;SDS011;60220;53.552;10.092;2024-02-15T01:18:38;37.40;;;13.48;;
72284;SDS011;60220;53.552;10.092;2024-02-15T01:21:05;36.78;;;14.88;;
72284;SDS011;60220;53.552;10.092;2024-02-15T01:23:34;30.52;;;13.50;;
72284;SDS011;60220;53.552;10.092;2024-02-15T01:26:04;38.13;;;13.68;;
72284;SDS011;60220;53.552;10.092;2024-02-15T01:28:31;39.05;;;14.27;;
72284;SDS011;60220;53.552;10.092;2024-02-15T01:30:57;38.15;;;14.70;;
72284;SDS011;60220;53.552;10.092;2024-02-15T01:33:27;32.38;;;13.88;;
72284;SDS011;60220;53.552;10.092;2024-02-15T01:35:54;37.22;;;13.07;;
72284;SDS011;60220;53.552;10.092;2024-02-15T01:38:23;31.42;;;12.10;;
72284;SDS011;60220;53.552;10.092;2024-02-15T01:40:50;33.90;;;13.18;;
72284;SDS011;60220;53.552;10.092;2024-02-15T01:43:17;33.70;;;12.55;;
72284;SDS011;60220;53.552;10.092;2024-02-15T01:45:43;35.35;;;12.23;;
72284;SDS011;60220;53.552;10.092;2024-02-15T01:48:12;37.33;;;13.38;;
72284;SDS011;60220;53.552;10.092;2024-02-15T01:50:43;36.33;;;13.65;;
72284;SDS011;60220;53.552;10.092;2024-02-15T01:53:10;37.45;;;13.32;;
72284;SDS011;60220;53.552;10.092;2024-02-15T01:55:37;31.02;;;12.25;;
72284;SDS011;60220;53.552;10.092;2024-02-15T01:58:05;31.00;;;12.50;;
72284;SDS011;60220;53.552;10.092;2024-02-15T02:00:32;37.67;;;12.65;;
72284;SDS011;60220;53.552;10.092;2024-02-15T02:02:59;35.20;;;13.95;;
72284;SDS011;60220;53.552;10.092;2024-02-15T02:05:28;30.60;;;12.20;;
72284;SDS011;60220;53.552;10.092;2024-02-15T02:07:59;37.10;;;12.63;;
72284;SDS011;60220;53.552;10.092;2024-02-15T02:10:31;36.83;;;14.30;;
72284;SDS011;60220;53.552;10.092;2024-02-15T02:12:59;37.42;;;14.38;;
72284;SDS011;60220;53.552;10.092;2024-02-15T02:15:27;37.25;;;15.57;;
72284;SDS011;60220;53.552;10.092;2024-02-15T02:17:56;44.75;;;13.68;;
72284;SDS011;60220;53.552;10.092;2024-02-15T02:20:24;44.83;;;14.63;;
72284;SDS011;60220;53.552;10.092;2024-02-15T02:22:53;40.95;;;13.30;;
72284;SDS011;60220;53.552;10.092;2024-02-15T02:25:23;44.88;;;14.35;;
72284;SDS011;60220;53.552;10.092;2024-02-15T02:27:52;43.92;;;15.00;;
72284;SDS011;60220;53.552;10.092;2024-02-15T02:30:20;40.17;;;15.25;;
72284;SDS011;60220;53.552;10.092;2024-02-15T02:32:47;43.55;;;16.15;;
72284;SDS011;60220;53.552;10.092;2024-02-15T02:35:14;40.88;;;14.20;;
72284;SDS011;60220;53.552;10.092;2024-02-15T02:37:41;38.30;;;14.98;;
72284;SDS011;60220;53.552;10.092;2024-02-15T02:40:09;31.98;;;13.80;;
72284;SDS011;60220;53.552;10.092;2024-02-15T02:42:47;36.03;;;12.88;;
72284;SDS011;60220;53.552;10.092;2024-02-15T02:45:15;37.55;;;14.18;;
72284;SDS011;60220;53.552;10.092;2024-02-15T02:47:44;37.60;;;14.20;;
72284;SDS011;60220;53.552;10.092;2024-02-15T02:50:13;39.88;;;14.27;;
72284;SDS011;60220;53.552;10.092;2024-02-15T02:52:42;34.58;;;14.75;;
72284;SDS011;60220;53.552;10.092;2024-02-15T02:55:11;39.78;;;15.13;;
72284;SDS011;60220;53.552;10.092;2024-02-15T02:57:38;36.58;;;14.07;;
72284;SDS011;60220;53.552;10.092;2024-02-15T03:00:09;38.90;;;13.93;;
72284;SDS011;60220;53.552;10.092;2024-02-15T03:02:38;38.03;;;14.32;;
72284;SDS011;60220;53.552;10.092;2024-02-15T03:05:07;38.83;;;14.00;;
72284;SDS011;60220;53.552;10.092;2024-02-15T03:07:36;36.67;;;14.40;;
72284;SDS011;60220;53.552;10.092;2024-02-15T03:10:05;31.83;;;12.60;;
72284;SDS011;60220;53.552;10.092;2024-02-15T03:12:33;34.28;;;13.20;;
72284;SDS011;60220;53.552;10.092;2024-02-15T03:15:01;33.00;;;13.20;;
72284;SDS011;60220;53.552;10.092;2024-02-15T03:17:29;33.45;;;12.98;;
72284;SDS011;60220;53.552;10.092;2024-02-15T03:19:56;35.03;;;11.70;;
72284;SDS011;60220;53.552;10.092;2024-02-15T03:22:23;35.40;;;12.65;;
72284;SDS011;60220;53.552;10.092;2024-02-15T03:24:52;35.97;;;12.60;;
72284;SDS011;60220;53.552;10.092;2024-02-15T03:27:19;29.48;;;11.20;;
72284;SDS011;60220;53.552;10.092;2024-02-15T03:29:48;27.27;;;11.93;;
72284;SDS011;60220;53.552;10.092;2024-02-15T03:32:17;27.00;;;10.80;;
72284;SDS011;60220;53.552;10.092;2024-02-15T03:34:45;28.50;;;9.88;;
72284;SDS011;60220;53.552;10.092;2024-02-15T03:37:14;28.98;;;11.45;;
72284;SDS011;60220;53.552;10.092;2024-02-15T03:39:41;24.20;;;9.55;;
72284;SDS011;60220;53.552;10.092;2024-02-15T03:42:08;29.77;;;10.40;;
72284;SDS011;60220;53.552;10.092;2024-02-15T03:44:37;24.13;;;9.77;;
72284;SDS011;60220;53.552;10.092;2024-02-15T03:47:06;23.30;;;9.40;;
72284;SDS011;60220;53.552;10.092;2024-02-15T03:49:33;29.13;;;10.65;;
72284;SDS011;60220;53.552;10.092;2024-02-15T03:52:03;26.95;;;9.27;;
72284;SDS011;60220;53.552;10.092;2024-02-15T03:54:30;25.10;;;10.32;;
72284;SDS011;60220;53.552;10.092;2024-02-15T03:56:57;28.52;;;10.73;;
72284;SDS011;60220;53.552;10.092;2024-02-15T03:59:23;29.52;;;11.27;;
72284;SDS011;60220;53.552;10.092;2024-02-15T04:01:52;30.77;;;10.43;;
72284;SDS011;60220;53.552;10.092;2024-02-15T04:04:18;34.13;;;11.57;;
72284;SDS011;60220;53.552;10.092;2024-02-15T04:06:46;31.98;;;11.93;;
72284;SDS011;60220;53.552;10.092;2024-02-15T04:09:16;34.22;;;11.93;;
72284;SDS011;60220;53.552;10.092;2024-02-15T04:11:43;30.10;;;10.73;;
72284;SDS011;60220;53.552;10.092;2024-02-15T04:14:12;30.73;;;11.55;;
72284;SDS011;60220;53.552;10.092;2024-02-15T04:16:38;29.80;;;12.60;;
72284;SDS011;60220;53.552;10.092;2024-02-15T04:19:07;30.38;;;11.38;;
72284;SDS011;60220;53.552;10.092;2024-02-15T04:21:36;37.53;;;13.10;;
72284;SDS011;60220;53.552;10.092;2024-02-15T04:24:06;39.45;;;13.07;;
72284;SDS011;60220;53.552;10.092;2024-02-15T04:26:34;40.72;;;12.57;;
72284;SDS011;60220;53.552;10.092;2024-02-15T04:29:02;37.60;;;11.77;;
72284;SDS011;60220;53.552;10.092;2024-02-15T04:31:29;29.92;;;10.75;;
72284;SDS011;60220;53.552;10.092;2024-02-15T04:33:59;37.38;;;12.82;;
72284;SDS011;60220;53.552;10.092;2024-02-15T04:36:26;49.60;;;14.88;;
72284;SDS011;60220;53.552;10.092;2024-02-15T04:38:58;39.13;;;14.45;;
72284;SDS011;60220;53.552;10.092;2024-02-15T04:41:27;35.38;;;13.02;;
72284;SDS011;60220;53.552;10.092;2024-02-15T04:43:55;41.03;;;14.70;;
72284;SDS011;60220;53.552;10.092;2024-02-15T04:46:22;45.35;;;15.15;;
72284;SDS011;60220;53.552;10.092;2024-02-15T04:48:49;42.92;;;14.32;;
72284;SDS011;60220;53.552;10.092;2024-02-15T04:51:17;38.75;;;14.63;;
72284;SDS011;60220;53.552;10.092;2024-02-15T04:53:47;44.90;;;14.98;;
72284;SDS011;60220;53.552;10.092;2024-02-15T04:56:16;50.90;;;15.57;;
72284;SDS011;60220;53.552;10.092;2024-02-15T04:58:43;47.40;;;15.48;;
72284;SDS011;60220;53.552;10.092;2024-02-15T05:01:14;47.60;;;15.57;;
72284;SDS011;60220;53.552;10.092;2024-02-15T05:03:41;44.65;;;15.90;;
72284;SDS011;60220;53.552;10.092;2024-02-15T05:06:09;42.00;;;15.23;;
72284;SDS011;60220;53.552;10.092;2024-02-15T05:08:37;47.53;;;15.85;;
72284;SDS011;60220;53.552;10.092;2024-02-15T05:11:10;39.22;;;14.60;;
72284;SDS011;60220;53.552;10.092;2024-02-15T05:13:44;42.80;;;14.65;;
72284;SDS011;60220;53.552;10.092;2024-02-15T05:16:11;44.00;;;14.07;;
72284;SDS011;60220;53.552;10.092;2024-02-15T05:18:39;49.75;;;15.52;;
72284;SDS011;60220;53.552;10.092;2024-02-15T05:21:08;49.28;;;15.57;;
72284;SDS011;60220;53.552;10.092;2024-02-15T05:23:35;53.40;;;15.88;;
72284;SDS011;60220;53.552;10.092;2024-02-15T05:26:03;37.42;;;13.48;;
72284;SDS011;60220;53.552;10.092;2024-02-15T05:28:29;49.70;;;15.63;;
72284;SDS011;60220;53.552;10.092;2024-02-15T05:33:40;45.33;;;15.50;;
72284;SDS011;60220;53.552;10.092;2024-02-15T05:36:11;45.42;;;15.90;;
72284;SDS011;60220;53.552;10.092;2024-02-15T05:38:41;51.97;;;15.52;;
72284;SDS011;60220;53.552;10.092;2024-02-15T05:41:12;50.33;;;16.05;;
72284;SDS011;60220;53.552;10.092;2024-02-15T05:43:41;38.75;;;15.00;;
72284;SDS011;60220;53.552;10.092;2024-02-15T05:46:08;42.05;;;14.68;;
72284;SDS011;60220;53.552;10.092;2024-02-15T05:48:38;44.15;;;13.77;;
72284;SDS011;60220;53.552;10.092;2024-02-15T05:51:06;39.17;;;13.73;;
72284;SDS011;60220;53.552;10.092;2024-02-15T05:53:34;45.10;;;15.45;;
72284;SDS011;60220;53.552;10.092;2024-02-15T05:56:02;45.63;;;14.60;;
72284;SDS011;60220;53.552;10.092;2024-02-15T05:58:29;49.83;;;15.85;;
72284;SDS011;60220;53.552;10.092;2024-02-15T06:00:56;45.42;;;14.95;;
72284;SDS011;60220;53.552;10.092;2024-02-15T06:03:26;40.55;;;14.52;;
72284;SDS011;60220;53.552;10.092;2024-02-15T06:05:53;53.80;;;15.60;;
72284;SDS011;60220;53.552;10.092;2024-02-15T06:08:24;48.67;;;15.57;;
72284;SDS011;60220;53.552;10.092;2024-02-15T06:10:51;41.58;;;15.27;;
72284;SDS011;60220;53.552;10.092;2024-02-15T06:13:18;48.58;;;14.30;;
72284;SDS011;60220;53.552;10.092;2024-02-15T06:15:45;53.53;;;15.63;;
72284;SDS011;60220;53.552;10.092;2024-02-15T06:18:12;41.88;;;14.00;;
72284;SDS011;60220;53.552;10.092;2024-02-15T06:20:39;42.42;;;15.35;;
72284;SDS011;60220;53.552;10.092;2024-02-15T06:23:08;48.15;;;13.65;;
72284;SDS011;60220;53.552;10.092;2024-02-15T06:25:36;48.83;;;16.17;;
72284;SDS011;60220;53.552;10.092;2024-02-15T06:28:02;44.95;;;14.88;;
72284;SDS011;60220;53.552;10.092;2024-02-15T06:30:38;48.72;;;14.65;;
72284;SDS011;60220;53.552;10.092;2024-02-15T06:33:25;49.17;;;14.98;;
72284;SDS011;60220;53.552;10.092;2024-02-15T06:36:12;39.67;;;12.77;;
72284;SDS011;60220;53.552;10.092;2024-02-15T06:38:56;52.05;;;17.75;;
72284;SDS011;60220;53.552;10.092;2024-02-15T06:41:42;47.80;;;15.38;;
72284;SDS011;60220;53.552;10.092;2024-02-15T06:44:09;47.28;;;14.45;;
72284;SDS011;60220;53.552;10.092;2024-02-15T06:46:37;54.63;;;14.65;;
72284;SDS011;60220;53.552;10.092;2024-02-15T06:49:04;52.40;;;14.40;;
72284;SDS011;60220;53.552;10.092;2024-02-15T06:51:30;49.60;;;15.80;;
72284;SDS011;60220;53.552;10.092;2024-02-15T06:53:57;47.63;;;15.20;;
72284;SDS011;60220;53.552;10.092;2024-02-15T06:56:24;46.88;;;13.30;;
72284;SDS011;60220;53.552;10.092;2024-02-15T06:58:54;46.28;;;13.95;;
72284;SDS011;60220;53.552;10.092;2024-02-15T07:01:21;59.00;;;15.27;;
72284;SDS011;60220;53.552;10.092;2024-02-15T07:03:52;42.90;;;14.02;;
72284;SDS011;60220;53.552;10.092;2024-02-15T07:06:19;54.47;;;15.20;;
72284;SDS011;60220;53.552;10.092;2024-02-15T07:08:46;51.28;;;14.45;;
72284;SDS011;60220;53.552;10.092;2024-02-15T07:11:15;54.97;;;13.90;;
72284;SDS011;60220;53.552;10.092;2024-02-15T07:13:42;53.33;;;14.07;;
72284;SDS011;60220;53.552;10.092;2024-02-15T07:16:13;58.30;;;15.43;;
72284;SDS011;60220;53.552;10.092;2024-02-15T07:18:40;52.65;;;15.50;;
72284;SDS011;60220;53.552;10.092;2024-02-15T07:21:10;59.55;;;16.60;;
72284;SDS011;60220;53.552;10.092;2024-02-15T07:23:39;50.42;;;16.20;;
72284;SDS011;60220;53.552;10.092;2024-02-15T07:26:09;58.85;;;16.75;;
72284;SDS011;60220;53.552;10.092;2024-02-15T07:28:37;47.75;;;14.32;;
72284;SDS011;60220;53.552;10.092;2024-02-15T07:31:04;64.95;;;16.17;;
72284;SDS011;60220;53.552;10.092;2024-02-15T07:33:33;65.25;;;16.65;;
72284;SDS011;60220;53.552;10.092;2024-02-15T07:36:03;60.78;;;17.08;;
72284;SDS011;60220;53.552;10.092;2024-02-15T07:38:30;64.55;;;16.77;;
72284;SDS011;60220;53.552;10.092;2024-02-15T07:40:59;57.80;;;17.65;;
72284;SDS011;60220;53.552;10.092;2024-02-15T07:43:26;60.33;;;16.70;;
72284;SDS011;60220;53.552;10.092;2024-02-15T07:45:52;62.97;;;16.85;;
72284;SDS011;60220;53.552;10.092;2024-02-15T07:48:19;56.97;;;15.43;;
72284;SDS011;60220;53.552;10.092;2024-02-15T07:50:49;58.63;;;15.23;;
72284;SDS011;60220;53.552;10.092;2024-02-15T07:53:16;50.08;;;15.07;;
72284;SDS011;60220;53.552;10.092;2024-02-15T07:55:42;54.70;;;15.20;;
72284;SDS011;60220;53.552;10.092;2024-02-15T07:58:09;54.20;;;15.98;;
72284;SDS011;60220;53.552;10.092;2024-02-15T08:00:36;41.60;;;13.65;;
72284;SDS011;60220;53.552;10.092;2024-02-15T08:03:03;43.53;;;13.52;;
72284;SDS011;60220;53.552;10.092;2024-02-15T08:05:30;45.08;;;12.45;;
72284;SDS011;60220;53.552;10.092;2024-02-15T08:07:58;41.88;;;13.30;;
72284;SDS011;60220;53.552;10.092;2024-02-15T08:10:24;39.15;;;13.82;;
72284;SDS011;60220;53.552;10.092;2024-02-15T08:12:53;43.35;;;13.68;;
72284;SDS011;60220;53.552;10.092;2024-02-15T08:15:25;42.45;;;13.80;;
72284;SDS011;60220;53.552;10.092;2024-02-15T08:17:52;47.38;;;14.13;;
72284;SDS011;60220;53.552;10.092;2024-02-15T08:20:22;42.40;;;14.23;;
72284;SDS011;60220;53.552;10.092;2024-02-15T08:22:49;42.60;;;12.82;;
72284;SDS011;60220;53.552;10.092;2024-02-15T08:25:17;49.20;;;13.32;;
72284;SDS011;60220;53.552;10.092;2024-02-15T08:27:46;39.47;;;14.90;;
72284;SDS011;60220;53.552;10.092;2024-02-15T08:30:15;39.72;;;13.27;;
72284;SDS011;60220;53.552;10.092;2024-02-15T08:32:44;39.85;;;12.13;;
72284;SDS011;60220;53.552;10.092;2024-02-15T08:35:13;33.20;;;12.20;;
72284;SDS011;60220;53.552;10.092;2024-02-15T08:37:40;30.73;;;11.35;;
72284;SDS011;60220;53.552;10.092;2024-02-15T08:40:09;34.00;;;11.75;;
72284;SDS011;60220;53.552;10.092;2024-02-15T08:42:38;33.28;;;10.48;;
72284;SDS011;60220;53.552;10.092;2024-02-15T08:45:06;35.95;;;10.73;;
72284;SDS011;60220;53.552;10.092;2024-02-15T08:47:34;24.85;;;9.73;;
72284;SDS011;60220;53.552;10.092;2024-02-15T08:50:03;28.55;;;10.07;;
72284;SDS011;60220;53.552;10.092;2024-02-15T08:52:30;26.83;;;9.77;;
72284;SDS011;60220;53.552;10.092;2024-02-15T08:54:56;28.75;;;9.90;;
72284;SDS011;60220;53.552;10.092;2024-02-15T08:57:26;23.80;;;9.15;;
72284;SDS011;60220;53.552;10.092;2024-02-15T08:59:54;26.13;;;9.65;;
72284;SDS011;60220;53.552;10.092;2024-02-15T09:02:21;19.83;;;7.75;;
72284;SDS011;60220;53.552;10.092;2024-02-15T09:04:50;20.75;;;8.25;;
72284;SDS011;60220;53.552;10.092;2024-02-15T09:07:16;16.83;;;7.68;;
72284;SDS011;60220;53.552;10.092;2024-02-15T09:09:43;20.27;;;7.55;;
72284;SDS011;60220;53.552;10.092;2024-02-15T09:12:10;17.35;;;7.07;;
72284;SDS011;60220;53.552;10.092;2024-02-15T09:14:37;12.80;;;5.72;;
72284;SDS011;60220;53.552;10.092;2024-02-15T09:17:05;14.23;;;6.72;;
72284;SDS011;60220;53.552;10.092;2024-02-15T09:19:33;16.10;;;7.32;;
72284;SDS011;60220;53.552;10.092;2024-02-15T09:21:59;18.40;;;7.72;;
72284;SDS011;60220;53.552;10.092;2024-02-15T09:24:26;17.55;;;7.22;;
72284;SDS011;60220;53.552;10.092;2024-02-15T09:26:56;17.02;;;7.82;;
72284;SDS011;60220;53.552;10.092;2024-02-15T09:29:23;16.40;;;7.15;;
72284;SDS011;60220;53.552;10.092;2024-02-15T09:31:52;18.00;;;6.65;;
72284;SDS011;60220;53.552;10.092;2024-02-15T09:34:20;17.90;;;7.13;;
72284;SDS011;60220;53.552;10.092;2024-02-15T09:36:47;18.83;;;6.57;;
72284;SDS011;60220;53.552;10.092;2024-02-15T09:39:13;16.75;;;7.75;;
72284;SDS011;60220;53.552;10.092;2024-02-15T09:41:40;17.73;;;8.10;;
72284;SDS011;60220;53.552;10.092;2024-02-15T09:44:10;16.25;;;6.63;;
72284;SDS011;60220;53.552;10.092;2024-02-15T09:46:42;19.88;;;7.25;;
72284;SDS011;60220;53.552;10.092;2024-02-15T09:49:11;23.42;;;8.38;;
72284;SDS011;60220;53.552;10.092;2024-02-15T09:51:42;16.05;;;7.35;;
72284;SDS011;60220;53.552;10.092;2024-02-15T09:54:11;15.55;;;6.88;;
72284;SDS011;60220;53.552;10.092;2024-02-15T09:56:38;17.02;;;7.65;;
72284;SDS011;60220;53.552;10.092;2024-02-15T09:59:07;18.58;;;7.00;;
72284;SDS011;60220;53.552;10.092;2024-02-15T10:01:33;16.45;;;7.28;;
72284;SDS011;60220;53.552;10.092;2024-02-15T10:04:02;14.65;;;7.82;;
72284;SDS011;60220;53.552;10.092;2024-02-15T10:06:32;20.05;;;8.48;;
72284;SDS011;60220;53.552;10.092;2024-02-15T10:11:55;17.67;;;8.35;;
72284;SDS011;60220;53.552;10.092;2024-02-15T10:14:22;19.67;;;9.73;;
72284;SDS011;60220;53.552;10.092;2024-02-15T10:16:52;17.33;;;8.77;;
72284;SDS011;60220;53.552;10.092;2024-02-15T10:19:20;21.60;;;10.98;;
72284;SDS011;60220;53.552;10.092;2024-02-15T10:21:50;22.08;;;10.10;;
72284;SDS011;60220;53.552;10.092;2024-02-15T10:24:20;28.85;;;11.60;;
72284;SDS011;60220;53.552;10.092;2024-02-15T10:26:50;22.33;;;10.52;;
72284;SDS011;60220;53.552;10.092;2024-02-15T10:29:19;26.30;;;12.70;;
72284;SDS011;60220;53.552;10.092;2024-02-15T10:31:52;27.23;;;11.02;;
72284;SDS011;60220;53.552;10.092;2024-02-15T10:34:20;27.75;;;11.30;;
72284;SDS011;60220;53.552;10.092;2024-02-15T10:36:50;25.63;;;12.20;;
72284;SDS011;60220;53.552;10.092;2024-02-15T10:39:17;28.20;;;11.38;;
72284;SDS011;60220;53.552;10.092;2024-02-15T10:41:45;25.08;;;12.40;;
72284;SDS011;60220;53.552;10.092;2024-02-15T10:44:15;23.48;;;11.38;;
72284;SDS011;60220;53.552;10.092;2024-02-15T10:46:46;27.08;;;11.52;;
72284;SDS011;60220;53.552;10.092;2024-02-15T10:49:16;26.25;;;11.85;;
72284;SDS011;60220;53.552;10.092;2024-02-15T10:51:44;24.00;;;12.52;;
72284;SDS011;60220;53.552;10.092;2024-02-15T10:54:15;28.10;;;11.95;;
72284;SDS011;60220;53.552;10.092;2024-02-15T10:56:49;31.88;;;12.10;;
72284;SDS011;60220;53.552;10.092;2024-02-15T10:59:23;25.67;;;12.77;;
72284;SDS011;60220;53.552;10.092;2024-02-15T11:01:59;24.80;;;13.27;;
72284;SDS011;60220;53.552;10.092;2024-02-15T11:04:30;35.53;;;14.93;;
72284;SDS011;60220;53.552;10.092;2024-02-15T11:07:01;29.75;;;13.18;;
72284;SDS011;60220;53.552;10.092;2024-02-15T11:09:31;28.50;;;13.70;;
72284;SDS011;60220;53.552;10.092;2024-02-15T11:12:00;36.70;;;16.02;;
72284;SDS011;60220;53.552;10.092;2024-02-15T11:14:29;39.22;;;15.00;;
72284;SDS011;60220;53.552;10.092;2024-02-15T11:16:57;31.63;;;14.73;;
72284;SDS011;60220;53.552;10.092;2024-02-15T11:19:39;39.72;;;16.30;;
72284;SDS011;60220;53.552;10.092;2024-02-15T11:22:07;37.42;;;15.70;;
72284;SDS011;60220;53.552;10.092;2024-02-15T11:24:45;34.35;;;15.02;;
72284;SDS011;60220;53.552;10.092;2024-02-15T11:27:13;33.08;;;15.50;;
72284;SDS011;60220;53.552;10.092;2024-02-15T11:29:53;40.15;;;15.57;;
72284;SDS011;60220;53.552;10.092;2024-02-15T11:32:42;36.13;;;16.67;;
72284;SDS011;60220;53.552;10.092;2024-02-15T11:35:14;31.80;;;14.18;;
72284;SDS011;60220;53.552;10.092;2024-02-15T11:37:56;41.20;;;15.55;;
72284;SDS011;60220;53.552;10.092;2024-02-15T11:43:49;34.45;;;16.48;;
72284;SDS011;60220;53.552;10.092;2024-02-15T11:46:24;35.95;;;16.13;;
72284;SDS011;60220;53.552;10.092;2024-02-15T11:48:55;34.58;;;16.58;;
72284;SDS011;60220;53.552;10.092;2024-02-15T11:51:27;39.45;;;17.35;;
72284;SDS011;60220;53.552;10.092;2024-02-15T11:53:58;29.45;;;16.33;;
72284;SDS011;60220;53.552;10.092;2024-02-15T11:56:26;42.95;;;17.83;;
72284;SDS011;60220;53.552;10.092;2024-02-15T11:59:01;45.08;;;17.95;;
72284;SDS011;60220;53.552;10.092;2024-02-15T12:01:32;37.13;;;16.23;;
72284;SDS011;60220;53.552;10.092;2024-02-15T12:04:18;45.47;;;17.88;;
72284;SDS011;60220;53.552;10.092;2024-02-15T12:07:02;40.92;;;18.75;;
72284;SDS011;60220;53.552;10.092;2024-02-15T12:09:47;34.40;;;16.45;;
72284;SDS011;60220;53.552;10.092;2024-02-15T12:12:31;39.28;;;17.20;;
72284;SDS011;60220;53.552;10.092;2024-02-15T12:15:20;36.70;;;14.63;;
72284;SDS011;60220;53.552;10.092;2024-02-15T12:18:15;37.30;;;16.50;;
72284;SDS011;60220;53.552;10.092;2024-02-15T12:20:59;60.45;;;28.73;;
72284;SDS011;60220;53.552;10.092;2024-02-15T12:23:29;39.13;;;16.95;;
72284;SDS011;60220;53.552;10.092;2024-02-15T12:25:58;42.15;;;17.65;;
72284;SDS011;60220;53.552;10.092;2024-02-15T12:28:25;37.63;;;17.85;;
72284;SDS011;60220;53.552;10.092;2024-02-15T12:30:55;39.40;;;16.75;;
72284;SDS011;60220;53.552;10.092;2024-02-15T12:33:23;39.50;;;16.90;;
72284;SDS011;60220;53.552;10.092;2024-02-15T12:35:52;34.85;;;17.10;;
72284;SDS011;60220;53.552;10.092;2024-02-15T12:38:32;31.83;;;14.60;;
72284;SDS011;60220;53.552;10.092;2024-02-15T12:41:02;33.42;;;14.55;;
72284;SDS011;60220;53.552;10.092;2024-02-15T12:43:32;36.80;;;15.93;;
72284;SDS011;60220;53.552;10.092;2024-02-15T12:45:59;36.67;;;14.30;;
72284;SDS011;60220;53.552;10.092;2024-02-15T12:48:27;27.45;;;13.95;;
72284;SDS011;60220;53.552;10.092;2024-02-15T12:50:54;27.00;;;14.73;;
72284;SDS011;60220;53.552;10.092;2024-02-15T12:53:21;29.30;;;14.20;;
72284;SDS011;60220;53.552;10.092;2024-02-15T12:55:52;24.42;;;13.13;;
72284;SDS011;60220;53.552;10.092;2024-02-15T12:58:20;26.77;;;11.98;;
72284;SDS011;60220;53.552;10.092;2024-02-15T13:00:49;25.38;;;11.75;;
72284;SDS011;60220;53.552;10.092;2024-02-15T13:03:16;26.50;;;12.15;;
72284;SDS011;60220;53.552;10.092;2024-02-15T13:05:44;20.50;;;11.55;;
72284;SDS011;60220;53.552;10.092;2024-02-15T13:08:13;24.08;;;12.02;;
72284;SDS011;60220;53.552;10.092;2024-02-15T13:10:43;23.60;;;12.10;;
72284;SDS011;60220;53.552;10.092;2024-02-15T13:13:12;20.25;;;11.20;;
72284;SDS011;60220;53.552;10.092;2024-02-15T13:15:41;17.55;;;10.23;;
72284;SDS011;60220;53.552;10.092;2024-02-15T13:18:07;21.63;;;10.20;;
72284;SDS011;60220;53.552;10.092;2024-02-15T13:20:36;20.73;;;9.80;;
72284;SDS011;60220;53.552;10.092;2024-02-15T13:23:04;16.95;;;8.48;;
72284;SDS011;60220;53.552;10.092;2024-02-15T13:25:34;15.90;;;9.35;;
72284;SDS011;60220;53.552;10.092;2024-02-15T13:28:02;18.63;;;8.63;;
72284;SDS011;60220;53.552;10.092;2024-02-15T13:30:30;17.50;;;8.77;;
72284;SDS011;60220;53.552;10.092;2024-02-15T13:32:57;13.30;;;8.18;;
72284;SDS011;60220;53.552;10.092;2024-02-15T13:35:26;13.13;;;7.85;;
72284;SDS011;60220;53.552;10.092;2024-02-15T13:37:53;18.88;;;7.97;;
72284;SDS011;60220;53.552;10.092;2024-02-15T13:40:24;13.25;;;7.10;;
72284;SDS011;60220;53.552;10.092;2024-02-15T13:42:54;13.18;;;8.07;;
72284;SDS011;60220;53.552;10.092;2024-02-15T13:45:24;14.88;;;8.85;;
72284;SDS011;60220;53.552;10.092;2024-02-15T13:47:55;15.02;;;6.97;;
72284;SDS011;60220;53.552;10.092;2024-02-15T13:50:22;15.07;;;7.78;;
72284;SDS011;60220;53.552;10.092;2024-02-15T13:52:49;11.15;;;7.05;;
72284;SDS011;60220;53.552;10.092;2024-02-15T13:55:17;10.82;;;7.20;;
72284;SDS011;60220;53.552;10.092;2024-02-15T13:57:47;12.13;;;8.05;;
72284;SDS011;60220;53.552;10.092;2024-02-15T14:00:17;14.50;;;8.50;;
72284;SDS011;60220;53.552;10.092;2024-02-15T14:02:48;12.15;;;7.35;;
72284;SDS011;60220;53.552;10.092;2024-02-15T14:05:15;13.95;;;7.78;;
72284;SDS011;60220;53.552;10.092;2024-02-15T14:07:45;12.85;;;7.10;;
72284;SDS011;60220;53.552;10.092;2024-02-15T14:10:16;15.75;;;7.65;;
72284;SDS011;60220;53.552;10.092;2024-02-15T14:12:48;14.10;;;7.80;;
72284;SDS011;60220;53.552;10.092;2024-02-15T14:15:17;19.83;;;8.57;;
72284;SDS011;60220;53.552;10.092;2024-02-15T14:17:44;13.85;;;9.48;;
72284;SDS011;60220;53.552;10.092;2024-02-15T14:20:11;17.00;;;9.07;;
72284;SDS011;60220;53.552;10.092;2024-02-15T14:22:39;18.75;;;7.93;;
72284;SDS011;60220;53.552;10.092;2024-02-15T14:25:06;15.82;;;8.63;;
72284;SDS011;60220;53.552;10.092;2024-02-15T14:27:33;15.55;;;8.70;;
72284;SDS011;60220;53.552;10.092;2024-02-15T14:30:01;14.02;;;7.68;;
72284;SDS011;60220;53.552;10.092;2024-02-15T14:32:45;15.23;;;7.97;;